createdAt,value
2022-09-10T00:01:41.782Z,100925.91
2022-09-10T00:04:12.076Z,100926.66
2022-09-10T00:06:38.969Z,100927.03
2022-09-10T00:09:10.031Z,100930.41
2022-09-10T00:11:39.020Z,100931.53
2022-09-10T00:14:07.984Z,100925.91
2022-09-10T00:16:34.662Z,100922.53
2022-09-10T00:19:02.288Z,100919.91
2022-09-10T00:21:30.630Z,100916.50
2022-09-10T00:23:57.903Z,100917.66
2022-09-10T00:26:27.442Z,100912.41
2022-09-10T00:28:56.421Z,100916.91
2022-09-10T00:31:23.580Z,100911.63
2022-09-10T00:33:51.120Z,100919.16
2022-09-10T00:36:24.092Z,100920.28
2022-09-10T00:38:53.298Z,100916.91
2022-09-10T00:41:21.969Z,100920.28
2022-09-10T00:43:55.881Z,100928.16
2022-09-10T00:46:33.758Z,100916.91
2022-09-10T00:49:05.229Z,100920.66
2022-09-10T00:51:35.748Z,100922.16
2022-09-10T00:54:03.461Z,100923.28
2022-09-10T00:56:31.393Z,100913.91
2022-09-10T00:58:58.102Z,100922.53
2022-09-10T01:01:24.662Z,100926.25
2022-09-10T01:03:53.074Z,100929.63
2022-09-10T01:06:19.610Z,100922.13
2022-09-10T01:08:46.095Z,100934.16
2022-09-10T01:11:50.077Z,100925.16
2022-09-10T01:14:29.818Z,100922.50
2022-09-10T01:17:07.402Z,100919.13
2022-09-10T01:19:57.103Z,100918.38
2022-09-10T01:22:51.425Z,100914.28
2022-09-10T01:25:33.337Z,100913.13
2022-09-10T01:28:06.796Z,100921.00
2022-09-10T01:30:45.626Z,100920.59
2022-09-10T01:33:21.424Z,100928.13
2022-09-10T01:35:59.860Z,100925.84
2022-09-10T01:38:35.636Z,100923.97
2022-09-10T01:41:02.758Z,100928.13
2022-09-10T01:43:29.222Z,100932.59
2022-09-10T01:46:19.234Z,100935.63
2022-09-10T01:48:54.740Z,100931.88
2022-09-10T01:51:36.963Z,100938.22
2022-09-10T01:54:28.457Z,100931.84
2022-09-10T01:57:13.845Z,100928.88
2022-09-10T02:00:15.780Z,100928.09
2022-09-10T02:03:04.097Z,100923.22
2022-09-10T02:05:35.284Z,100919.13
2022-09-10T02:08:07.088Z,100917.22
2022-09-10T02:10:33.907Z,100913.47
2022-09-10T02:13:00.402Z,100914.97
2022-09-10T02:15:28.762Z,100916.84
2022-09-10T02:17:55.947Z,100919.47
2022-09-10T02:20:23.238Z,100915.34
2022-09-10T02:22:54.597Z,100905.63
2022-09-10T02:25:21.251Z,100910.84
2022-09-10T02:27:49.027Z,100902.59
2022-09-10T02:30:16.942Z,100904.84
2022-09-10T02:32:43.438Z,100902.22
2022-09-10T02:35:09.930Z,100913.88
2022-09-10T02:37:37.220Z,100909.38
2022-09-10T02:40:04.616Z,100910.88
2022-09-10T02:42:31.105Z,100916.13
2022-09-10T02:44:57.630Z,100917.63
2022-09-10T02:47:24.175Z,100922.13
2022-09-10T02:49:50.708Z,100917.25
2022-09-10T02:52:17.365Z,100911.63
2022-09-10T02:54:43.942Z,100913.13
2022-09-10T02:57:12.244Z,100907.88
2022-09-10T02:59:38.845Z,100904.88
2022-09-10T03:02:06.479Z,100912.75
2022-09-10T03:04:33.095Z,100913.84
2022-09-10T03:06:59.688Z,100904.50
2022-09-10T03:09:28.946Z,100907.50
2022-09-10T03:11:55.769Z,100903.75
2022-09-10T03:14:24.573Z,100903.75
2022-09-10T03:16:51.234Z,100900.75
2022-09-10T03:19:17.719Z,100902.22
2022-09-10T03:21:47.527Z,100903.75
2022-09-10T03:24:15.495Z,100906.34
2022-09-10T03:26:44.436Z,100897.34
2022-09-10T03:29:14.114Z,100897.75
2022-09-10T03:31:40.789Z,100891.72
2022-09-10T03:34:08.129Z,100892.09
2022-09-10T03:36:34.612Z,100892.09
2022-09-10T03:39:01.169Z,100890.97
2022-09-10T03:41:28.508Z,100889.47
2022-09-10T03:43:55.645Z,100890.22
2022-09-10T03:46:22.794Z,100891.34
2022-09-10T03:48:54.629Z,100891.34
2022-09-10T03:51:23.275Z,100892.88
2022-09-10T03:53:49.780Z,100883.09
2022-09-10T03:56:20.049Z,100890.25
2022-09-10T03:58:49.184Z,100886.88
2022-09-10T04:01:19.722Z,100890.25
2022-09-10T04:03:46.987Z,100892.13
2022-09-10T04:06:14.777Z,100892.47
2022-09-10T04:08:43.429Z,100882.75
2022-09-10T04:11:10.277Z,100888.38
2022-09-10T04:13:36.828Z,100881.59
2022-09-10T04:16:03.397Z,100888.72
2022-09-10T04:18:30.179Z,100885.75
2022-09-10T04:20:56.630Z,100883.13
2022-09-10T04:23:23.264Z,100886.09
2022-09-10T04:25:50.638Z,100881.59
2022-09-10T04:28:17.278Z,100879.72
2022-09-10T04:30:45.181Z,100883.88
2022-09-10T04:33:11.754Z,100880.09
2022-09-10T04:35:39.604Z,100883.13
2022-09-10T04:38:07.198Z,100872.97
2022-09-10T04:40:34.354Z,100883.84
2022-09-10T04:43:01.298Z,100886.47
2022-09-10T04:45:27.877Z,100882.72
2022-09-10T04:47:54.410Z,100881.22
2022-09-10T04:50:21.972Z,100892.09
2022-09-10T04:52:48.562Z,100893.25
2022-09-10T04:55:15.641Z,100899.63
2022-09-10T04:57:42.310Z,100889.84
2022-09-10T05:00:09.405Z,100894.00
2022-09-10T05:02:37.827Z,100898.88
2022-09-10T05:05:04.740Z,100892.47
2022-09-10T05:07:31.213Z,100888.72
2022-09-10T05:09:57.662Z,100894.72
2022-09-10T05:12:24.356Z,100889.88
2022-09-10T05:14:51.074Z,100896.97
2022-09-10T05:17:17.594Z,100897.00
2022-09-10T05:19:44.087Z,100888.72
2022-09-10T05:22:10.750Z,100896.25
2022-09-10T05:24:37.300Z,100898.88
2022-09-10T05:27:03.900Z,100897.38
2022-09-10T05:29:33.610Z,100889.88
2022-09-10T05:32:00.144Z,100892.50
2022-09-10T05:34:26.577Z,100885.34
2022-09-10T05:36:53.049Z,100886.47
2022-09-10T05:39:20.375Z,100885.34
2022-09-10T05:41:46.839Z,100891.00
2022-09-10T05:44:15.151Z,100892.13
2022-09-10T05:46:41.715Z,100891.34
2022-09-10T05:49:08.668Z,100892.50
2022-09-10T05:51:35.139Z,100895.13
2022-09-10T05:54:01.673Z,100898.09
2022-09-10T05:56:28.122Z,100907.13
2022-09-10T05:58:54.619Z,100897.75
2022-09-10T06:01:21.235Z,100896.59
2022-09-10T06:03:48.578Z,100907.84
2022-09-10T06:06:15.324Z,100902.63
2022-09-10T06:08:41.913Z,100912.00
2022-09-10T06:11:11.845Z,100907.88
2022-09-10T06:13:40.542Z,100914.66
2022-09-10T06:16:07.808Z,100911.63
2022-09-10T06:18:34.551Z,100913.53
2022-09-10T06:21:03.354Z,100920.28
2022-09-10T06:23:31.370Z,100916.16
2022-09-10T06:26:04.315Z,100918.03
2022-09-10T06:28:33.059Z,100918.41
2022-09-10T06:30:59.927Z,100925.94
2022-09-10T06:33:27.005Z,100925.16
2022-09-10T06:35:56.513Z,100921.41
2022-09-10T06:38:24.087Z,100915.41
2022-09-10T06:40:55.263Z,100910.91
2022-09-10T06:43:23.646Z,100919.91
2022-09-10T06:45:53.144Z,100925.19
2022-09-10T06:48:39.592Z,100925.91
2022-09-10T06:51:09.796Z,100928.56
2022-09-10T06:53:37.403Z,100935.69
2022-09-10T06:56:06.133Z,100931.91
2022-09-10T06:58:36.156Z,100940.59
2022-09-10T07:01:14.089Z,100948.06
2022-09-10T07:03:41.472Z,100937.56
2022-09-10T07:06:10.999Z,100942.06
2022-09-10T07:08:37.493Z,100943.94
2022-09-10T07:11:06.211Z,100946.19
2022-09-10T07:13:32.721Z,100954.44
2022-09-10T07:15:59.363Z,100957.00
2022-09-10T07:18:26.353Z,100956.22
2022-09-10T07:20:52.943Z,100964.84
2022-09-10T07:23:21.675Z,100963.66
2022-09-10T07:25:48.763Z,100955.03
2022-09-10T07:28:18.159Z,100960.72
2022-09-10T07:30:45.358Z,100952.38
2022-09-10T07:33:11.993Z,100969.38
2022-09-10T07:35:38.916Z,100978.03
2022-09-10T07:38:07.586Z,100966.38
2022-09-10T07:40:34.364Z,100975.78
2022-09-10T07:43:00.921Z,100975.03
2022-09-10T07:45:28.266Z,100974.66
2022-09-10T07:47:54.843Z,100980.66
2022-09-10T07:50:21.480Z,100979.13
2022-09-10T07:52:49.247Z,100984.06
2022-09-10T07:55:16.006Z,100986.63
2022-09-10T07:57:42.496Z,100978.00
2022-09-10T08:00:12.361Z,100979.47
2022-09-10T08:02:39.381Z,100988.13
2022-09-10T08:05:06.388Z,100984.00
2022-09-10T08:07:32.904Z,100982.06
2022-09-10T08:09:59.461Z,100991.13
2022-09-10T08:12:25.901Z,100993.72
2022-09-10T08:14:52.537Z,100997.84
2022-09-10T08:17:19.066Z,100995.22
2022-09-10T08:19:45.545Z,100995.97
2022-09-10T08:22:13.997Z,101007.25
2022-09-10T08:24:40.453Z,101014.81
2022-09-10T08:27:06.931Z,101010.22
2022-09-10T08:29:34.819Z,101013.47
2022-09-10T08:32:01.348Z,101020.16
2022-09-10T08:34:29.529Z,101023.75
2022-09-10T08:36:56.026Z,101025.03
2022-09-10T08:39:22.458Z,101020.50
2022-09-10T08:41:59.525Z,101024.22
2022-09-10T08:44:34.681Z,101029.03
2022-09-10T08:47:11.288Z,101034.41
2022-09-10T08:49:45.787Z,101026.19
2022-09-10T08:52:38.995Z,101040.13
2022-09-10T08:55:17.551Z,101039.84
2022-09-10T08:57:54.693Z,101036.06
2022-09-10T09:00:26.936Z,101031.41
2022-09-10T09:03:20.941Z,101036.19
2022-09-10T09:05:50.331Z,101038.81
2022-09-10T09:08:21.878Z,101049.78
2022-09-10T09:10:53.657Z,101046.94
2022-09-10T09:13:45.145Z,101049.19
2022-09-10T09:16:33.737Z,101044.75
2022-09-10T09:19:28.384Z,101051.00
2022-09-10T09:21:59.714Z,101045.28
2022-09-10T09:24:44.522Z,101049.16
2022-09-10T09:27:19.297Z,101042.22
2022-09-10T09:30:05.469Z,101046.59
2022-09-10T09:32:35.763Z,101053.19
2022-09-10T09:35:24.033Z,101057.84
2022-09-10T09:38:03.523Z,101051.88
2022-09-10T09:40:57.790Z,101049.88
2022-09-10T09:43:45.800Z,101051.78
2022-09-10T09:46:21.086Z,101056.25
2022-09-10T09:48:48.865Z,101061.50
2022-09-10T09:51:21.760Z,101072.47
2022-09-10T09:54:06.153Z,101070.06
2022-09-10T09:56:42.952Z,101077.34
2022-09-10T09:59:35.998Z,101079.13
2022-09-10T10:02:12.668Z,101078.78
2022-09-10T10:04:52.516Z,101079.44
2022-09-10T10:07:25.680Z,101080.19
2022-09-10T10:09:52.660Z,101087.19
2022-09-10T10:12:20.854Z,101084.75
2022-09-10T10:14:47.486Z,101086.19
2022-09-10T10:17:34.454Z,101088.34
2022-09-10T10:20:08.826Z,101094.41
2022-09-10T10:22:38.143Z,101080.84
2022-09-10T10:25:27.000Z,101096.53
2022-09-10T10:27:54.474Z,101091.41
2022-09-10T10:30:24.090Z,101091.28
2022-09-10T10:32:58.990Z,101101.03
2022-09-10T10:35:36.170Z,101097.00
2022-09-10T10:38:31.490Z,101099.84
2022-09-10T10:41:13.095Z,101097.19
2022-09-10T10:43:42.574Z,101099.56
2022-09-10T10:46:20.298Z,101107.66
2022-09-10T10:49:03.839Z,101116.56
2022-09-10T10:51:42.152Z,101121.56
2022-09-10T10:54:28.649Z,101119.34
2022-09-10T10:57:01.593Z,101133.16
2022-09-10T11:00:01.305Z,101129.00
2022-09-10T11:02:38.584Z,101127.13
2022-09-10T11:05:25.708Z,101130.63
2022-09-10T11:07:52.945Z,101125.38
2022-09-10T11:10:29.521Z,101133.09
2022-09-10T11:13:13.506Z,101134.16
2022-09-10T11:16:22.264Z,101142.16
2022-09-10T11:19:03.698Z,101144.44
2022-09-10T11:21:45.397Z,101141.84
2022-09-10T11:24:27.093Z,101146.34
2022-09-10T11:27:02.829Z,101145.34
2022-09-10T11:29:44.454Z,101150.25
2022-09-10T11:32:45.294Z,101152.59
2022-09-10T11:35:33.737Z,101154.72
2022-09-10T11:38:01.457Z,101152.81
2022-09-10T11:40:41.848Z,101150.00
2022-09-10T11:43:14.745Z,101151.25
2022-09-10T11:45:53.168Z,101161.78
2022-09-10T11:48:58.000Z,101156.56
2022-09-10T11:51:29.337Z,101157.47
2022-09-10T11:53:56.578Z,101155.41
2022-09-10T11:56:23.203Z,101166.38
2022-09-10T11:58:49.658Z,101156.31
2022-09-10T12:01:46.665Z,101164.69
2022-09-10T12:04:31.216Z,101173.66
2022-09-10T12:07:19.477Z,101170.34
2022-09-10T12:10:05.411Z,101174.00
2022-09-10T12:12:58.678Z,101176.22
2022-09-10T12:15:31.247Z,101176.97
2022-09-10T12:18:04.276Z,101189.22
2022-09-10T12:20:42.239Z,101189.56
2022-09-10T12:23:17.534Z,101191.88
2022-09-10T12:25:44.345Z,101199.03
2022-09-10T12:28:42.425Z,101187.75
2022-09-10T12:31:21.051Z,101184.00
2022-09-10T12:33:47.532Z,101191.75
2022-09-10T12:36:34.572Z,101196.63
2022-09-10T12:39:26.438Z,101192.56
2022-09-10T12:41:53.244Z,101204.44
2022-09-10T12:44:34.743Z,101208.09
2022-09-10T12:47:16.574Z,101214.56
2022-09-10T12:49:54.821Z,101211.22
2022-09-10T12:52:52.679Z,101208.00
2022-09-10T12:55:48.488Z,101210.50
2022-09-10T12:58:36.729Z,101213.66
2022-09-10T13:01:09.304Z,101208.19
2022-09-10T13:03:36.148Z,101216.53
2022-09-10T13:06:05.339Z,101219.50
2022-09-10T13:08:41.600Z,101222.53
2022-09-10T13:11:22.445Z,101215.34
2022-09-10T13:13:48.855Z,101228.38
2022-09-10T13:16:21.979Z,101221.03
2022-09-10T13:18:55.055Z,101228.88
2022-09-10T13:21:23.299Z,101233.25
2022-09-10T13:23:52.628Z,101229.31
2022-09-10T13:26:31.544Z,101244.97
2022-09-10T13:29:00.480Z,101249.44
2022-09-10T13:31:33.570Z,101251.03
2022-09-10T13:34:15.425Z,101248.66
2022-09-10T13:37:34.371Z,101249.22
2022-09-10T13:40:29.418Z,101254.72
2022-09-10T13:43:23.443Z,101257.88
2022-09-10T13:46:05.015Z,101260.94
2022-09-10T13:48:46.353Z,101263.13
2022-09-10T13:51:42.792Z,101262.06
2022-09-10T13:54:29.544Z,101264.81
2022-09-10T13:56:59.761Z,101266.09
2022-09-10T13:59:31.260Z,101260.06
2022-09-10T14:01:59.524Z,101263.00
2022-09-10T14:04:26.438Z,101275.44
2022-09-10T14:07:03.731Z,101271.81
2022-09-10T14:09:32.653Z,101277.03
2022-09-10T14:12:06.529Z,101268.16
2022-09-10T14:14:38.149Z,101278.19
2022-09-10T14:17:09.393Z,101283.41
2022-09-10T14:19:41.991Z,101287.00
2022-09-10T14:22:16.042Z,101291.22
2022-09-10T14:24:50.660Z,101288.91
2022-09-10T14:27:17.210Z,101290.25
2022-09-10T14:29:44.215Z,101286.59
2022-09-10T14:32:16.876Z,101296.06
2022-09-10T14:34:43.487Z,101292.56
2022-09-10T14:37:25.526Z,101294.88
2022-09-10T14:39:52.355Z,101297.78
2022-09-10T14:42:21.857Z,101298.88
2022-09-10T14:44:48.351Z,101303.44
2022-09-10T14:47:28.306Z,101303.75
2022-09-10T14:49:54.852Z,101298.88
2022-09-10T14:52:22.479Z,101307.41
2022-09-10T14:55:11.146Z,101305.41
2022-09-10T14:57:38.442Z,101303.84
2022-09-10T15:00:05.496Z,101309.31
2022-09-10T15:02:32.007Z,101304.09
2022-09-10T15:04:58.709Z,101305.91
2022-09-10T15:07:25.296Z,101309.81
2022-09-10T15:09:53.431Z,101305.94
2022-09-10T15:12:25.763Z,101308.81
2022-09-10T15:14:52.452Z,101314.22
2022-09-10T15:17:19.092Z,101307.50
2022-09-10T15:19:50.203Z,101320.19
2022-09-10T15:22:24.845Z,101308.75
2022-09-10T15:25:09.076Z,101323.06
2022-09-10T15:27:37.162Z,101336.16
2022-09-10T15:30:05.396Z,101334.50
2022-09-10T15:32:32.006Z,101331.91
2022-09-10T15:34:59.355Z,101344.13
2022-09-10T15:37:26.069Z,101332.78
2022-09-10T15:39:54.648Z,101345.38
2022-09-10T15:42:21.416Z,101342.31
2022-09-10T15:44:47.881Z,101346.16
2022-09-10T15:47:14.932Z,101356.47
2022-09-10T15:49:41.593Z,101356.63
2022-09-10T15:52:08.377Z,101354.78
2022-09-10T15:54:34.936Z,101363.59
2022-09-10T15:57:01.534Z,101358.88
2022-09-10T15:59:28.580Z,101363.88
2022-09-10T16:01:55.264Z,101358.66
2022-09-10T16:04:21.937Z,101361.81
2022-09-10T16:06:48.443Z,101367.09
2022-09-10T16:09:15.086Z,101367.09
2022-09-10T16:11:42.585Z,101377.72
2022-09-10T16:14:13.527Z,101372.50
2022-09-10T16:16:41.005Z,101373.50
2022-09-10T16:19:08.292Z,101372.09
2022-09-10T16:21:37.393Z,101384.75
2022-09-10T16:24:04.990Z,101383.91
2022-09-10T16:26:38.005Z,101386.09
2022-09-10T16:29:07.532Z,101378.09
2022-09-10T16:31:36.956Z,101378.16
2022-09-10T16:34:05.531Z,101387.44
2022-09-10T16:36:34.614Z,101385.03
2022-09-10T16:39:05.257Z,101391.00
2022-09-10T16:41:33.079Z,101403.69
2022-09-10T16:44:00.612Z,101401.75
2022-09-10T16:46:28.189Z,101406.06
2022-09-10T16:48:56.138Z,101409.47
2022-09-10T16:51:24.740Z,101414.69
2022-09-10T16:54:02.837Z,101417.16
2022-09-10T16:56:33.651Z,101420.28
2022-09-10T16:59:00.334Z,101426.47
2022-09-10T17:01:26.895Z,101422.53
2022-09-10T17:03:53.756Z,101427.88
2022-09-10T17:06:24.272Z,101430.31
2022-09-10T17:08:54.657Z,101440.19
2022-09-10T17:11:22.836Z,101446.13
2022-09-10T17:13:50.997Z,101439.53
2022-09-10T17:16:38.115Z,101437.94
2022-09-10T17:19:14.273Z,101434.53
2022-09-10T17:21:44.084Z,101436.69
2022-09-10T17:24:12.330Z,101440.56
2022-09-10T17:26:40.590Z,101447.09
2022-09-10T17:29:14.619Z,101445.53
2022-09-10T17:31:42.083Z,101442.63
2022-09-10T17:34:12.830Z,101440.81
2022-09-10T17:36:41.380Z,101445.94
2022-09-10T17:39:09.795Z,101456.91
2022-09-10T17:41:36.392Z,101463.38
2022-09-10T17:44:03.222Z,101457.56
2022-09-10T17:46:31.191Z,101463.38
2022-09-10T17:48:59.595Z,101486.59
2022-09-10T17:51:29.515Z,101483.34
2022-09-10T17:53:56.608Z,101488.34
2022-09-10T17:56:25.025Z,101486.50
2022-09-10T17:58:59.301Z,101488.66
2022-09-10T18:01:31.139Z,101493.66
2022-09-10T18:03:57.922Z,101491.06
2022-09-10T18:06:25.333Z,101492.00
2022-09-10T18:08:52.697Z,101497.09
2022-09-10T18:11:22.905Z,101507.47
2022-09-10T18:13:54.580Z,101512.56
2022-09-10T18:16:23.937Z,101516.13
2022-09-10T18:18:54.007Z,101511.75
2022-09-10T18:21:25.491Z,101522.47
2022-09-10T18:23:57.541Z,101524.13
2022-09-10T18:26:26.174Z,101522.03
2022-09-10T18:28:54.051Z,101532.66
2022-09-10T18:31:20.625Z,101533.94
2022-09-10T18:33:47.394Z,101535.16
2022-09-10T18:36:16.279Z,101537.56
2022-09-10T18:38:43.738Z,101546.34
2022-09-10T18:41:24.937Z,101552.53
2022-09-10T18:43:54.067Z,101555.66
2022-09-10T18:46:20.904Z,101561.81
2022-09-10T18:48:50.276Z,101564.53
2022-09-10T18:51:30.583Z,101554.44
2022-09-10T18:54:00.080Z,101572.25
2022-09-10T18:56:31.908Z,101572.34
2022-09-10T18:59:01.212Z,101576.97
2022-09-10T19:01:31.260Z,101586.81
2022-09-10T19:03:58.276Z,101584.63
2022-09-10T19:06:29.335Z,101592.25
2022-09-10T19:08:58.871Z,101590.06
2022-09-10T19:11:29.407Z,101592.34
2022-09-10T19:13:57.224Z,101597.31
2022-09-10T19:16:28.942Z,101596.22
2022-09-10T19:18:58.467Z,101603.03
2022-09-10T19:21:26.845Z,101606.84
2022-09-10T19:23:59.541Z,101615.59
2022-09-10T19:26:31.408Z,101612.94
2022-09-10T19:28:59.279Z,101621.28
2022-09-10T19:31:27.286Z,101621.31
2022-09-10T19:33:56.473Z,101623.97
2022-09-10T19:36:23.026Z,101636.84
2022-09-10T19:38:50.257Z,101642.50
2022-09-10T19:41:20.935Z,101638.34
2022-09-10T19:43:49.584Z,101634.22
2022-09-10T19:46:22.583Z,101634.22
2022-09-10T19:48:54.556Z,101641.03
2022-09-10T19:51:21.929Z,101632.72
2022-09-10T19:53:49.628Z,101645.56
2022-09-10T19:56:21.081Z,101653.06
2022-09-10T19:58:53.771Z,101642.91
2022-09-10T20:01:24.372Z,101640.59
2022-09-10T20:03:53.499Z,101649.28
2022-09-10T20:06:22.261Z,101654.53
2022-09-10T20:08:50.565Z,101657.59
2022-09-10T20:11:22.907Z,101653.41
2022-09-10T20:13:53.374Z,101664.34
2022-09-10T20:16:19.945Z,101663.53
2022-09-10T20:18:46.764Z,101664.69
2022-09-10T20:21:15.583Z,101669.56
2022-09-10T20:23:44.500Z,101668.78
2022-09-10T20:26:19.629Z,101658.97
2022-09-10T20:28:52.122Z,101661.22
2022-09-10T20:31:19.076Z,101670.63
2022-09-10T20:33:45.855Z,101664.59
2022-09-10T20:36:17.791Z,101677.34
2022-09-10T20:39:44.321Z,101675.06
2022-09-10T20:42:11.281Z,101667.13
2022-09-10T20:44:38.012Z,101677.25
2022-09-10T20:47:07.163Z,101682.88
2022-09-10T20:49:33.799Z,101677.53
2022-09-10T20:52:00.433Z,101682.00
2022-09-10T20:54:28.098Z,101683.50
2022-09-10T20:56:54.630Z,101681.25
2022-09-10T20:59:25.532Z,101689.50
2022-09-10T21:01:54.148Z,101694.00
2022-09-10T21:04:22.035Z,101688.66
2022-09-10T21:06:48.662Z,101692.44
2022-09-10T21:09:15.277Z,101694.31
2022-09-10T21:11:41.951Z,101685.97
2022-09-10T21:14:09.058Z,101696.00
2022-09-10T21:16:41.525Z,101700.16
2022-09-10T21:19:12.500Z,101699.75
2022-09-10T21:21:40.352Z,101702.75
2022-09-10T21:24:25.058Z,101694.81
2022-09-10T21:27:05.264Z,101707.94
2022-09-10T21:29:37.315Z,101695.09
2022-09-10T21:32:10.541Z,101708.94
2022-09-10T21:34:37.123Z,101702.88
2022-09-10T21:37:03.919Z,101715.28
2022-09-10T21:39:30.458Z,101714.50
2022-09-10T21:41:57.109Z,101718.25
2022-09-10T21:44:25.056Z,101717.13
2022-09-10T21:46:52.647Z,101724.97
2022-09-10T21:49:20.339Z,101720.41
2022-09-10T21:51:46.989Z,101730.16
2022-09-10T21:54:15.767Z,101730.84
2022-09-10T21:56:42.296Z,101731.97
2022-09-10T21:59:10.589Z,101734.94
2022-09-10T22:01:37.114Z,101733.00
2022-09-10T22:04:04.131Z,101731.09
2022-09-10T22:06:32.778Z,101727.66
2022-09-10T22:09:01.945Z,101726.88
2022-09-10T22:11:30.888Z,101728.28
2022-09-10T22:14:06.788Z,101742.19
2022-09-10T22:16:35.017Z,101734.97
2022-09-10T22:19:05.885Z,101745.06
2022-09-10T22:21:33.206Z,101737.13
2022-09-10T22:23:59.745Z,101750.25
2022-09-10T22:26:28.285Z,101752.81
2022-09-10T22:28:56.856Z,101756.50
2022-09-10T22:31:26.474Z,101760.22
2022-09-10T22:33:55.449Z,101759.44
2022-09-10T22:36:31.647Z,101754.50
2022-09-10T22:39:03.586Z,101759.00
2022-09-10T22:41:31.810Z,101760.81
2022-09-10T22:43:58.399Z,101751.69
2022-09-10T22:46:25.031Z,101752.44
2022-09-10T22:48:51.641Z,101755.06
2022-09-10T22:51:23.906Z,101762.13
2022-09-10T22:53:52.612Z,101760.56
2022-09-10T22:56:22.160Z,101766.50
2022-09-10T22:58:51.685Z,101772.44
2022-09-10T23:01:20.540Z,101768.63
2022-09-10T23:03:48.692Z,101766.69
2022-09-10T23:06:18.533Z,101764.75
2022-09-10T23:08:47.751Z,101770.34
2022-09-10T23:11:19.139Z,101781.25
2022-09-10T23:13:47.821Z,101786.47
2022-09-10T23:16:21.763Z,101786.41
2022-09-10T23:18:50.686Z,101787.06
2022-09-10T23:21:23.126Z,101787.31
2022-09-10T23:23:54.847Z,101785.84
2022-09-10T23:26:22.148Z,101793.25
2022-09-10T23:28:49.405Z,101796.25
2022-09-10T23:31:17.423Z,101799.97
2022-09-10T23:33:46.747Z,101795.00
2022-09-10T23:36:14.054Z,101802.50
2022-09-10T23:38:42.704Z,101801.66
2022-09-10T23:41:13.808Z,101802.31
2022-09-10T23:43:40.656Z,101801.09
2022-09-10T23:46:08.986Z,101804.47
2022-09-10T23:48:36.351Z,101803.66
2022-09-10T23:51:04.156Z,101805.47
2022-09-10T23:53:31.825Z,101808.09
2022-09-10T23:55:59.214Z,101808.72
2022-09-10T23:58:25.816Z,101815.81
